Time;durP1;ratioP1;P1;durP2;ratioP2;P2;SDS_P1;SDS_P2;PMS_P1;PMS_P2;Temp;Humidity;BMP_temperature;BMP_pressure;BME280_temperature;BME280_humidity;BME280_pressure;Samples;Min_cycle;Max_cycle;Signal;HPM_P1;HPM_P2
2023/01/20 00:01:21;;;;;;;4.20;2.33;;;26.40;53.50;;;;;;4949949;28;20203;-57
2023/01/20 00:03:53;;;;;;;2.83;2.10;;;26.40;53.40;;;;;;4943193;29;20191;-56
2023/01/20 00:06:24;;;;;;;2.35;1.70;;;26.50;53.30;;;;;;4952534;28;20222;-52
2023/01/20 00:08:57;;;;;;;4.75;1.80;;;26.50;53.30;;;;;;4952283;28;20223;-53
2023/01/20 00:11:29;;;;;;;1.95;1.65;;;26.50;53.30;;;;;;4938664;28;20575;-55
2023/01/20 00:14:00;;;;;;;3.60;2.00;;;26.50;53.20;;;;;;4946726;29;20206;-59
2023/01/20 00:16:32;;;;;;;4.35;1.80;;;26.50;53.20;;;;;;4952238;28;20226;-54
2023/01/20 00:19:02;;;;;;;2.53;1.60;;;26.60;53.20;;;;;;4950478;28;20261;-58
2023/01/20 00:21:33;;;;;;;1.95;1.40;;;26.60;53.30;;;;;;4932976;29;20196;-54
2023/01/20 00:24:06;;;;;;;5.57;1.73;;;26.60;53.30;;;;;;4946178;29;20288;-55
2023/01/20 00:26:37;;;;;;;2.13;1.50;;;26.70;53.30;;;;;;4951965;28;20222;-57
2023/01/20 00:29:08;;;;;;;2.97;1.67;;;26.70;53.30;;;;;;4951125;28;20234;-56
2023/01/20 00:31:38;;;;;;;2.38;1.67;;;26.70;53.30;;;;;;4932859;29;20226;-56
2023/01/20 00:34:11;;;;;;;2.35;1.67;;;26.80;53.30;;;;;;4946187;29;20195;-55
2023/01/20 00:36:42;;;;;;;2.60;1.73;;;26.80;53.30;;;;;;4951884;28;20223;-57
2023/01/20 00:39:14;;;;;;;3.53;1.63;;;26.80;53.30;;;;;;4938056;28;20201;-57
2023/01/20 00:41:45;;;;;;;3.80;1.80;;;26.80;53.20;;;;;;4914335;29;20204;-57
2023/01/20 00:44:15;;;;;;;3.85;1.73;;;26.80;53.10;;;;;;4944840;29;20205;-58
2023/01/20 00:46:46;;;;;;;2.33;1.40;;;26.90;53.10;;;;;;4955389;28;20218;-57
2023/01/20 00:49:17;;;;;;;2.92;1.92;;;26.90;53.10;;;;;;4955176;28;20222;-57
2023/01/20 00:51:47;;;;;;;1.50;1.40;;;26.90;53.10;;;;;;4939353;28;20207;-56
2023/01/20 00:54:20;;;;;;;4.85;1.70;;;27.00;53.00;;;;;;4950150;29;20199;-60
2023/01/20 00:56:51;;;;;;;2.13;1.50;;;27.00;53.00;;;;;;4945493;28;20302;-53
2023/01/20 00:59:21;;;;;;;2.33;1.60;;;27.00;53.00;;;;;;4935818;29;20211;-58
2023/01/20 01:01:52;;;;;;;2.28;1.67;;;27.00;53.00;;;;;;4936273;29;20204;-57
2023/01/20 01:04:23;;;;;;;2.75;1.55;;;27.10;53.00;;;;;;4936063;29;20206;-57
2023/01/20 01:06:53;;;;;;;3.33;1.80;;;27.20;53.10;;;;;;4932721;29;20227;-58
2023/01/20 01:09:26;;;;;;;1.65;1.42;;;27.20;53.10;;;;;;4935540;29;20617;-55
2023/01/20 01:11:57;;;;;;;3.10;1.80;;;27.20;53.00;;;;;;4940816;29;20570;-54
2023/01/20 01:14:28;;;;;;;3.17;1.77;;;27.20;52.90;;;;;;4939644;28;20200;-57
2023/01/20 01:16:58;;;;;;;3.60;2.22;;;27.20;53.00;;;;;;4940988;29;20316;-56
2023/01/20 01:19:29;;;;;;;2.80;1.60;;;27.20;53.10;;;;;;4955153;28;20203;-59
2023/01/20 01:22:00;;;;;;;2.95;1.60;;;27.30;53.10;;;;;;4954989;28;20899;-58
2023/01/20 01:24:32;;;;;;;2.15;1.50;;;27.30;53.10;;;;;;4947071;28;20196;-56
2023/01/20 01:27:03;;;;;;;1.75;1.50;;;27.30;53.00;;;;;;4921726;29;20230;-57
2023/01/20 01:29:34;;;;;;;1.60;1.17;;;27.40;52.90;;;;;;4935686;29;20235;-57
2023/01/20 01:32:04;;;;;;;2.45;1.42;;;27.40;52.90;;;;;;4940444;29;20200;-58
2023/01/20 01:34:35;;;;;;;2.75;1.40;;;27.50;52.90;;;;;;4954416;28;20210;-56
2023/01/20 01:37:06;;;;;;;2.60;1.40;;;27.50;52.90;;;;;;4954478;28;20218;-59
2023/01/20 01:39:39;;;;;;;4.78;1.83;;;27.50;52.90;;;;;;4954857;28;20281;-59
2023/01/20 01:42:14;;;;;;;3.55;1.50;;;27.50;52.80;;;;;;4954194;28;20403;-56
2023/01/20 01:45:15;;;;;;;1.80;1.23;;;27.60;52.80;;;;;;4954090;28;20206;-55
2023/01/20 01:47:50;;;;;;;1.73;1.20;;;27.60;52.70;;;;;;4934717;28;20231;-59
2023/01/20 01:50:24;;;;;;;1.55;1.25;;;27.60;52.60;;;;;;4930795;29;20601;-56
2023/01/20 01:52:57;;;;;;;2.90;1.40;;;27.60;52.60;;;;;;4946547;28;20199;-59
2023/01/20 01:55:31;;;;;;;2.85;1.60;;;27.70;52.60;;;;;;4954110;28;20199;-54
2023/01/20 01:58:03;;;;;;;1.63;1.30;;;27.70;52.50;;;;;;4954557;28;20226;-59
2023/01/20 02:00:34;;;;;;;1.95;1.33;;;27.70;52.50;;;;;;4954559;28;20199;-57
2023/01/20 02:03:05;;;;;;;2.30;1.55;;;27.70;52.60;;;;;;4945266;28;20195;-58
2023/01/20 02:05:38;;;;;;;1.98;1.30;;;27.80;52.60;;;;;;4954262;28;20253;-57
2023/01/20 02:08:09;;;;;;;1.85;1.42;;;27.80;52.60;;;;;;4953369;28;20215;-55
2023/01/20 02:10:42;;;;;;;2.28;1.35;;;27.80;52.50;;;;;;4946144;28;20264;-59
2023/01/20 02:13:13;;;;;;;1.92;1.38;;;27.80;52.40;;;;;;4946438;29;20647;-59
2023/01/20 02:15:49;;;;;;;2.70;1.35;;;27.80;52.30;;;;;;4953849;28;20195;-59
2023/01/20 02:18:45;;;;;;;1.85;1.27;;;27.90;52.20;;;;;;4953806;28;20194;-57
2023/01/20 02:21:52;;;;;;;1.88;1.55;;;27.90;52.20;;;;;;4942324;28;20203;-59
2023/01/20 02:24:53;;;;;;;2.58;1.60;;;27.90;52.10;;;;;;4915575;29;20207;-58
2023/01/20 02:27:42;;;;;;;1.48;1.30;;;28.00;52.20;;;;;;4925568;29;20214;-56
2023/01/20 02:30:36;;;;;;;2.58;1.23;;;28.00;52.10;;;;;;4949938;28;20723;-58
2023/01/20 02:33:14;;;;;;;1.92;1.30;;;28.00;52.10;;;;;;4943841;29;20203;-59
2023/01/20 02:35:47;;;;;;;1.83;1.38;;;28.00;52.00;;;;;;4953411;28;20203;-58
2023/01/20 02:38:25;;;;;;;1.60;1.27;;;28.00;52.00;;;;;;4953756;28;20194;-60
2023/01/20 02:41:05;;;;;;;1.52;1.23;;;28.00;52.00;;;;;;4953712;28;20217;-59
2023/01/20 02:43:40;;;;;;;1.80;1.25;;;28.00;52.00;;;;;;4952895;28;20673;-57
2023/01/20 02:46:17;;;;;;;2.10;1.20;;;28.10;52.10;;;;;;4953056;28;20219;-58
2023/01/20 02:48:53;;;;;;;1.63;1.20;;;28.00;51.90;;;;;;4932119;28;20660;-57
2023/01/20 02:51:27;;;;;;;1.63;1.25;;;28.10;51.90;;;;;;4915510;29;20222;-57
2023/01/20 02:54:03;;;;;;;2.58;1.50;;;28.10;51.80;;;;;;4945919;29;20198;-56
2023/01/20 02:56:36;;;;;;;2.17;1.25;;;28.10;51.60;;;;;;4953226;28;20237;-60
2023/01/20 02:59:11;;;;;;;1.60;1.17;;;28.20;51.60;;;;;;4952741;28;20722;-59
2023/01/20 03:01:44;;;;;;;2.03;1.00;;;28.20;51.50;;;;;;4943539;28;20211;-59
2023/01/20 03:04:21;;;;;;;1.40;1.30;;;28.20;51.40;;;;;;4935223;29;20200;-59
2023/01/20 03:06:55;;;;;;;1.23;1.00;;;28.20;51.50;;;;;;4933460;29;20227;-56
2023/01/20 03:09:31;;;;;;;1.48;1.30;;;28.20;51.50;;;;;;4934401;29;20239;-58
2023/01/20 03:12:09;;;;;;;2.10;1.50;;;28.20;51.50;;;;;;4934114;29;20199;-58
2023/01/20 03:14:39;;;;;;;1.80;1.25;;;28.20;51.50;;;;;;4933869;29;20230;-58
2023/01/20 03:17:10;;;;;;;1.65;1.00;;;28.20;51.50;;;;;;4933239;29;20585;-58
2023/01/20 03:19:43;;;;;;;1.50;1.17;;;28.20;51.50;;;;;;4914998;29;20210;-60
2023/01/20 03:22:14;;;;;;;1.25;0.90;;;28.20;51.40;;;;;;4915223;29;20221;-58
2023/01/20 03:24:46;;;;;;;1.00;0.90;;;28.20;51.20;;;;;;4950794;28;20209;-59
2023/01/20 03:27:17;;;;;;;2.10;1.40;;;28.20;51.10;;;;;;4927513;29;20228;-60
2023/01/20 03:29:47;;;;;;;1.30;1.20;;;28.30;51.00;;;;;;4952512;28;20233;-58
2023/01/20 03:32:21;;;;;;;1.60;1.10;;;28.20;50.70;;;;;;4933723;29;20664;-57
2023/01/20 03:34:54;;;;;;;3.83;1.27;;;28.30;50.40;;;;;;4952716;28;20202;-59
2023/01/20 03:37:25;;;;;;;1.00;0.90;;;28.30;50.10;;;;;;4952708;28;20223;-59
2023/01/20 03:39:57;;;;;;;1.13;0.88;;;28.30;49.80;;;;;;4952996;28;20203;-57
2023/01/20 03:42:33;;;;;;;2.75;1.00;;;28.30;49.40;;;;;;4952641;28;20202;-59
2023/01/20 03:45:08;;;;;;;1.80;1.10;;;28.30;49.20;;;;;;4949461;28;20217;-58
2023/01/20 03:47:53;;;;;;;1.20;0.80;;;28.30;49.00;;;;;;4935308;29;20680;-57
2023/01/20 03:50:36;;;;;;;3.22;1.10;;;28.30;48.80;;;;;;4953067;28;20237;-57
2023/01/20 03:53:17;;;;;;;1.95;0.80;;;28.40;48.80;;;;;;4947330;28;20195;-58
2023/01/20 03:55:54;;;;;;;1.50;0.80;;;28.40;49.40;;;;;;4951855;28;20198;-57
2023/01/20 03:58:30;;;;;;;1.40;0.88;;;28.40;48.80;;;;;;4952065;28;20202;-58
2023/01/20 04:01:02;;;;;;;1.38;0.80;;;28.40;48.80;;;;;;4947191;28;20187;-58
2023/01/20 04:03:35;;;;;;;0.98;0.70;;;28.40;48.60;;;;;;4940798;29;20203;-55
2023/01/20 04:06:10;;;;;;;1.45;0.80;;;28.50;48.40;;;;;;4952405;28;20199;-56
2023/01/20 04:08:45;;;;;;;1.33;0.70;;;28.50;48.20;;;;;;4951485;28;20218;-58
2023/01/20 04:11:16;;;;;;;0.82;0.68;;;28.50;48.00;;;;;;4951742;29;20230;-54
2023/01/20 04:13:47;;;;;;;0.60;0.60;;;28.50;47.60;;;;;;4951881;28;20191;-59
2023/01/20 04:16:19;;;;;;;2.20;0.88;;;28.60;47.50;;;;;;4951993;28;20865;-57
2023/01/20 04:18:52;;;;;;;1.52;0.80;;;28.60;47.30;;;;;;4954938;28;20211;-55
2023/01/20 04:21:30;;;;;;;1.63;0.65;;;28.60;47.00;;;;;;4923996;28;20212;-56
2023/01/20 04:24:05;;;;;;;2.25;0.80;;;28.60;46.90;;;;;;4940262;29;20194;-56
2023/01/20 04:26:36;;;;;;;1.48;0.80;;;28.70;46.90;;;;;;4955479;28;20222;-54
2023/01/20 04:29:09;;;;;;;0.75;0.60;;;28.70;46.80;;;;;;4955347;28;20666;-55
2023/01/20 04:31:40;;;;;;;4.18;0.57;;;28.80;47.00;;;;;;4949295;28;20199;-58
2023/01/20 04:34:14;;;;;;;1.30;0.70;;;28.70;45.90;;;;;;4948260;29;20195;-58
2023/01/20 04:36:46;;;;;;;0.57;0.50;;;28.70;46.20;;;;;;4927386;28;20296;-58
2023/01/20 04:39:17;;;;;;;0.90;0.70;;;28.70;46.70;;;;;;4947769;29;20206;-57
2023/01/20 04:41:49;;;;;;;0.73;0.50;;;28.70;46.80;;;;;;4955019;28;20667;-57
2023/01/20 04:44:19;;;;;;;1.10;0.70;;;28.70;46.70;;;;;;4955003;28;20209;-55
2023/01/20 04:46:50;;;;;;;0.60;0.60;;;28.70;46.60;;;;;;4955172;28;20222;-58
2023/01/20 04:49:21;;;;;;;1.15;0.57;;;28.70;46.30;;;;;;4954780;28;20191;-58
2023/01/20 04:51:53;;;;;;;1.55;0.63;;;28.70;46.00;;;;;;4955472;28;20209;-57
2023/01/20 04:54:24;;;;;;;1.58;0.52;;;28.70;45.60;;;;;;4955255;28;20198;-56
2023/01/20 04:56:55;;;;;;;0.85;0.60;;;28.80;45.50;;;;;;4956018;28;20231;-55
2023/01/20 04:59:25;;;;;;;0.70;0.47;;;28.80;45.30;;;;;;4955344;28;20648;-58
2023/01/20 05:01:56;;;;;;;0.85;0.40;;;28.80;45.20;;;;;;4941751;28;20201;-57
2023/01/20 05:04:27;;;;;;;0.55;0.55;;;28.80;45.10;;;;;;4941044;29;20199;-56
2023/01/20 05:06:59;;;;;;;1.98;0.75;;;28.80;45.00;;;;;;4954819;28;20229;-53
2023/01/20 05:09:30;;;;;;;1.00;0.65;;;28.80;44.90;;;;;;4954827;28;20202;-56
2023/01/20 05:12:01;;;;;;;1.88;0.50;;;28.80;45.10;;;;;;4955221;28;20683;-57
2023/01/20 05:14:31;;;;;;;1.38;0.40;;;28.80;45.20;;;;;;4954057;28;20572;-58
2023/01/20 05:17:02;;;;;;;1.63;0.60;;;28.90;45.40;;;;;;4955023;28;20226;-57
2023/01/20 05:19:33;;;;;;;0.40;0.40;;;28.90;45.60;;;;;;4954588;28;20199;-57
2023/01/20 05:22:05;;;;;;;1.05;0.40;;;28.90;45.80;;;;;;4954321;28;20209;-58
2023/01/20 05:24:36;;;;;;;1.35;0.60;;;28.90;45.90;;;;;;4954692;28;20199;-58
2023/01/20 05:27:07;;;;;;;0.45;0.45;;;28.90;46.10;;;;;;4936905;28;20219;-59
2023/01/20 05:29:37;;;;;;;1.40;0.63;;;28.90;46.20;;;;;;4946503;29;20559;-58
2023/01/20 05:32:08;;;;;;;2.72;0.70;;;28.90;46.20;;;;;;4941263;28;20200;-58
2023/01/20 05:34:39;;;;;;;2.28;0.80;;;28.90;46.00;;;;;;4935376;29;20215;-59
2023/01/20 05:37:11;;;;;;;2.90;1.55;;;28.90;46.10;;;;;;4935560;29;20224;-59
2023/01/20 05:39:42;;;;;;;3.70;1.80;;;28.90;45.90;;;;;;4935815;29;20207;-58
2023/01/20 05:42:13;;;;;;;5.28;2.05;;;28.80;45.80;;;;;;4935509;29;20219;-58
2023/01/20 05:44:43;;;;;;;4.00;1.98;;;28.90;45.70;;;;;;4935560;29;20211;-58
2023/01/20 05:47:14;;;;;;;4.32;2.15;;;28.80;45.60;;;;;;4935628;29;20225;-59
2023/01/20 05:49:45;;;;;;;3.85;2.00;;;28.80;45.50;;;;;;4935638;29;20594;-60
2023/01/20 05:52:17;;;;;;;5.75;2.20;;;28.80;45.80;;;;;;4935454;29;20206;-60
2023/01/20 05:54:48;;;;;;;6.28;2.35;;;28.80;46.00;;;;;;4937730;29;20644;-59
2023/01/20 05:57:19;;;;;;;5.63;2.75;;;28.80;45.90;;;;;;4935275;29;20227;-59
2023/01/20 05:59:50;;;;;;;8.90;3.35;;;28.80;45.90;;;;;;4933561;29;20203;-60
2023/01/20 06:02:21;;;;;;;6.88;3.28;;;28.80;45.60;;;;;;4937787;29;20204;-60
2023/01/20 06:04:52;;;;;;;7.80;3.25;;;28.80;45.50;;;;;;4935328;29;20227;-60
2023/01/20 06:07:24;;;;;;;8.60;3.20;;;28.80;45.30;;;;;;4935582;29;20392;-59
2023/01/20 06:09:55;;;;;;;9.55;2.70;;;28.80;45.30;;;;;;4935041;29;20250;-60
2023/01/20 06:12:26;;;;;;;6.63;3.00;;;28.70;45.40;;;;;;4935050;29;20202;-59
2023/01/20 06:14:57;;;;;;;6.28;2.88;;;28.70;45.60;;;;;;4934789;29;20195;-59
2023/01/20 06:17:27;;;;;;;5.05;2.63;;;28.70;45.70;;;;;;4935031;29;20219;-59
2023/01/20 06:19:59;;;;;;;5.63;3.33;;;28.70;45.80;;;;;;4934775;29;20668;-59
2023/01/20 06:22:31;;;;;;;8.48;3.60;;;28.70;45.80;;;;;;4934899;29;20204;-60
2023/01/20 06:25:02;;;;;;;6.90;3.08;;;28.70;45.70;;;;;;4934893;29;20199;-59
2023/01/20 06:27:32;;;;;;;4.82;2.72;;;28.70;45.70;;;;;;4935007;29;20564;-57
2023/01/20 06:30:03;;;;;;;6.00;3.00;;;28.70;45.80;;;;;;4934930;29;20206;-60
2023/01/20 06:32:34;;;;;;;6.38;2.90;;;28.70;45.70;;;;;;4934804;29;20199;-60
2023/01/20 06:35:05;;;;;;;6.72;2.92;;;28.70;45.70;;;;;;4934595;29;20668;-59
2023/01/20 06:37:37;;;;;;;6.20;3.22;;;28.70;45.60;;;;;;4934759;29;20731;-58
2023/01/20 06:40:08;;;;;;;6.28;3.28;;;28.60;45.30;;;;;;4934191;29;20219;-58
2023/01/20 06:42:39;;;;;;;5.85;3.15;;;28.60;45.20;;;;;;4934618;29;20200;-57
2023/01/20 06:45:11;;;;;;;7.72;3.08;;;28.60;45.00;;;;;;4934506;29;20211;-58
2023/01/20 06:47:42;;;;;;;6.60;3.05;;;28.60;45.00;;;;;;4934404;29;20284;-56
2023/01/20 06:50:13;;;;;;;5.03;2.70;;;28.60;44.80;;;;;;4934460;29;20229;-55
2023/01/20 06:52:46;;;;;;;6.18;2.97;;;28.60;44.80;;;;;;4934407;29;20199;-58
2023/01/20 06:55:17;;;;;;;5.10;2.88;;;28.50;44.80;;;;;;4934199;29;20672;-58
2023/01/20 06:57:48;;;;;;;4.75;2.70;;;28.50;44.90;;;;;;4934813;29;20231;-59
2023/01/20 07:00:19;;;;;;;5.97;2.97;;;28.50;45.10;;;;;;4934653;29;20203;-58
2023/01/20 07:02:51;;;;;;;5.95;2.80;;;28.50;45.10;;;;;;4934193;29;20571;-59
2023/01/20 07:05:22;;;;;;;6.70;3.13;;;28.50;45.10;;;;;;4934336;29;20204;-58
2023/01/20 07:07:55;;;;;;;4.00;2.50;;;28.50;45.20;;;;;;4934059;29;20246;-58
2023/01/20 07:10:25;;;;;;;5.72;2.90;;;28.50;45.20;;;;;;4934071;29;20223;-57
2023/01/20 07:12:56;;;;;;;4.80;2.72;;;28.50;45.20;;;;;;4934309;29;20195;-60
2023/01/20 07:15:27;;;;;;;4.20;2.60;;;28.40;45.10;;;;;;4934431;29;20668;-59
2023/01/20 07:17:57;;;;;;;4.85;2.72;;;28.40;45.00;;;;;;4934378;29;20223;-59
2023/01/20 07:20:28;;;;;;;5.38;2.90;;;28.40;44.80;;;;;;4934257;29;20687;-58
2023/01/20 07:23:02;;;;;;;5.82;2.60;;;28.40;44.70;;;;;;4933974;29;20207;-58
2023/01/20 07:25:33;;;;;;;6.32;3.15;;;28.40;44.60;;;;;;4933823;29;20675;-58
2023/01/20 07:28:03;;;;;;;6.13;2.33;;;28.40;44.60;;;;;;4933113;29;20227;-58
2023/01/20 07:30:34;;;;;;;5.05;2.58;;;28.30;44.40;;;;;;4933829;29;20702;-59
2023/01/20 07:33:05;;;;;;;4.55;2.35;;;28.30;44.30;;;;;;4933491;29;20539;-59
2023/01/20 07:35:36;;;;;;;4.45;2.55;;;28.30;44.30;;;;;;4933591;29;20196;-60
2023/01/20 07:38:09;;;;;;;5.05;2.55;;;28.30;44.30;;;;;;4933919;29;20256;-58
2023/01/20 07:40:39;;;;;;;4.18;2.45;;;28.30;44.40;;;;;;4933906;29;20203;-60
2023/01/20 07:43:10;;;;;;;5.13;2.40;;;28.30;44.60;;;;;;4933654;29;20207;-57
2023/01/20 07:45:41;;;;;;;3.72;2.10;;;28.30;44.70;;;;;;4933727;29;20199;-58
2023/01/20 07:48:11;;;;;;;4.90;2.20;;;28.20;44.70;;;;;;4933870;28;20219;-58
2023/01/20 07:50:42;;;;;;;4.28;2.33;;;28.20;44.70;;;;;;4935832;29;20223;-58
2023/01/20 07:53:15;;;;;;;4.10;2.13;;;28.20;44.80;;;;;;4936505;29;20196;-58
2023/01/20 07:55:45;;;;;;;4.22;2.03;;;28.20;44.80;;;;;;4937190;29;20211;-59
2023/01/20 07:58:16;;;;;;;5.65;2.33;;;28.20;44.70;;;;;;4937787;29;20844;-59
2023/01/20 08:00:47;;;;;;;3.22;2.08;;;28.20;44.60;;;;;;4936993;29;20195;-58
2023/01/20 08:03:18;;;;;;;3.17;2.05;;;28.20;44.60;;;;;;4937657;29;20205;-58
2023/01/20 08:05:49;;;;;;;4.47;2.28;;;28.20;44.60;;;;;;4939795;29;20199;-59
2023/01/20 08:08:21;;;;;;;3.55;1.92;;;28.20;44.60;;;;;;4937458;29;20679;-59
2023/01/20 08:10:57;;;;;;;3.30;1.95;;;28.10;44.50;;;;;;4937600;29;20230;-59
2023/01/20 08:13:27;;;;;;;3.63;1.90;;;28.10;44.40;;;;;;4937559;29;20206;-57
2023/01/20 08:16:01;;;;;;;4.30;2.30;;;28.10;44.40;;;;;;4937402;29;20207;-60
2023/01/20 08:18:32;;;;;;;4.07;1.98;;;28.10;44.50;;;;;;4936918;29;20210;-58
2023/01/20 08:21:05;;;;;;;3.47;1.83;;;28.10;44.50;;;;;;4936612;29;20206;-59
2023/01/20 08:23:38;;;;;;;4.03;1.63;;;28.10;44.60;;;;;;4937164;29;20207;-59
2023/01/20 08:26:09;;;;;;;2.58;1.77;;;28.10;44.60;;;;;;4936781;29;20652;-59
2023/01/20 08:28:40;;;;;;;3.08;1.50;;;28.10;44.70;;;;;;4936542;29;20203;-59
2023/01/20 08:31:13;;;;;;;3.55;1.50;;;28.00;44.60;;;;;;4936754;29;20235;-58
2023/01/20 08:33:44;;;;;;;3.38;1.65;;;28.00;44.70;;;;;;4937271;29;20672;-60
2023/01/20 08:36:17;;;;;;;3.28;1.70;;;28.10;44.70;;;;;;4937020;29;20832;-59
2023/01/20 08:38:50;;;;;;;2.58;1.60;;;28.00;44.70;;;;;;4936833;29;20203;-60
2023/01/20 08:41:23;;;;;;;4.00;2.03;;;28.00;44.70;;;;;;4937000;29;20699;-59
2023/01/20 08:43:54;;;;;;;4.05;2.00;;;28.00;44.70;;;;;;4931758;29;20211;-58
2023/01/20 08:46:25;;;;;;;2.65;1.58;;;28.00;44.60;;;;;;4917932;29;20225;-58
2023/01/20 08:48:56;;;;;;;2.83;1.80;;;28.00;44.60;;;;;;4917502;29;20568;-58
2023/01/20 08:51:27;;;;;;;2.28;1.52;;;27.90;44.50;;;;;;4933265;29;20266;-57
2023/01/20 08:54:00;;;;;;;3.63;2.10;;;27.90;44.50;;;;;;4935706;29;20207;-59
2023/01/20 08:56:32;;;;;;;3.60;1.40;;;27.90;44.60;;;;;;4935923;29;20232;-58
2023/01/20 08:59:04;;;;;;;3.10;1.50;;;27.90;44.70;;;;;;4936203;29;20291;-58
2023/01/20 09:01:36;;;;;;;5.13;1.80;;;27.90;44.60;;;;;;4934004;29;20567;-58
2023/01/20 09:04:07;;;;;;;2.17;1.17;;;27.80;44.60;;;;;;4950818;28;20210;-59
2023/01/20 09:06:43;;;;;;;2.45;1.50;;;27.90;44.50;;;;;;4933259;28;20619;-58
2023/01/20 09:09:18;;;;;;;4.65;1.48;;;27.80;44.50;;;;;;4916762;29;20200;-59
2023/01/20 09:11:51;;;;;;;2.83;1.50;;;27.80;44.60;;;;;;4943816;29;20222;-59
2023/01/20 09:14:22;;;;;;;2.95;1.60;;;27.80;44.70;;;;;;4954653;28;20259;-58
2023/01/20 09:16:53;;;;;;;2.45;1.40;;;27.80;44.70;;;;;;4932184;28;20224;-59
2023/01/20 09:19:24;;;;;;;2.28;1.48;;;27.70;44.60;;;;;;4928508;29;20199;-59
2023/01/20 09:21:55;;;;;;;1.73;1.25;;;27.70;44.60;;;;;;4948642;29;20600;-59
2023/01/20 09:24:27;;;;;;;2.38;1.38;;;27.70;44.60;;;;;;4942428;28;20199;-58
2023/01/20 09:26:58;;;;;;;2.60;1.40;;;27.70;44.60;;;;;;4949194;28;20223;-58
2023/01/20 09:29:29;;;;;;;2.33;1.38;;;27.70;44.70;;;;;;4954615;28;20284;-58
2023/01/20 09:31:59;;;;;;;2.30;1.35;;;27.70;44.70;;;;;;4941730;28;20230;-58
2023/01/20 09:34:33;;;;;;;2.03;1.30;;;27.60;44.60;;;;;;4935249;29;20204;-56
2023/01/20 09:45:39;;;;;;;2.88;1.40;;;27.60;44.90;;;;;;4954538;29;20249;-58
2023/01/20 09:54:04;;;;;;;3.30;1.45;;;27.50;45.00;;;;;;4944484;29;20227;-58
2023/01/20 09:56:42;;;;;;;3.10;1.73;;;27.50;45.10;;;;;;4943925;28;20225;-58
2023/01/20 09:59:18;;;;;;;3.33;1.88;;;27.50;45.10;;;;;;4954711;28;20202;-57
2023/01/20 10:01:52;;;;;;;2.67;1.42;;;27.50;45.20;;;;;;4948298;28;20199;-58
2023/01/20 10:04:33;;;;;;;2.58;1.70;;;27.40;45.10;;;;;;4934275;29;20231;-58
2023/01/20 10:07:11;;;;;;;3.42;1.45;;;27.50;45.30;;;;;;4946543;28;20211;-59
2023/01/20 10:09:47;;;;;;;3.60;1.50;;;27.40;45.20;;;;;;4932697;29;20206;-59
2023/01/20 10:12:26;;;;;;;2.10;1.52;;;27.40;45.20;;;;;;4951445;28;20222;-58
2023/01/20 10:15:06;;;;;;;2.72;1.50;;;27.40;45.30;;;;;;4952907;28;20194;-59
2023/01/20 10:17:39;;;;;;;3.08;1.50;;;27.30;45.20;;;;;;4953785;28;20214;-58
2023/01/20 10:20:15;;;;;;;2.22;1.20;;;27.30;45.30;;;;;;4953051;28;20209;-58
2023/01/20 10:22:52;;;;;;;2.90;1.30;;;27.30;45.40;;;;;;4953483;28;20194;-58
2023/01/20 10:25:26;;;;;;;3.45;1.95;;;27.30;45.40;;;;;;4953264;28;20607;-58
2023/01/20 10:28:05;;;;;;;2.67;1.65;;;27.30;45.50;;;;;;4953187;28;20277;-59
2023/01/20 10:30:38;;;;;;;3.00;1.63;;;27.20;45.40;;;;;;4953517;28;20678;-59
2023/01/20 10:33:12;;;;;;;2.13;1.50;;;27.20;45.50;;;;;;4935678;28;20235;-59
2023/01/20 10:35:47;;;;;;;2.45;1.35;;;27.20;45.50;;;;;;4934468;29;20290;-59
2023/01/20 10:38:24;;;;;;;1.83;1.40;;;27.20;45.60;;;;;;4934631;29;20246;-58
2023/01/20 10:41:01;;;;;;;3.08;1.55;;;27.20;45.60;;;;;;4934799;29;20203;-58
2023/01/20 10:43:34;;;;;;;3.30;1.70;;;27.10;45.50;;;;;;4934791;29;20214;-58
2023/01/20 10:46:25;;;;;;;2.85;1.67;;;27.10;45.50;;;;;;4934646;29;20672;-55
2023/01/20 10:49:28;;;;;;;3.63;1.60;;;27.10;45.50;;;;;;4934540;29;20207;-58
2023/01/20 10:52:13;;;;;;;2.70;1.63;;;27.10;45.60;;;;;;4918120;29;20231;-58
2023/01/20 10:54:52;;;;;;;3.45;1.70;;;27.00;45.50;;;;;;4934681;29;20195;-58
2023/01/20 10:57:23;;;;;;;3.08;1.42;;;27.00;45.60;;;;;;4934510;29;20238;-58
2023/01/20 10:59:58;;;;;;;2.97;1.67;;;27.00;45.70;;;;;;4934967;29;20591;-56
2023/01/20 11:02:33;;;;;;;2.85;1.70;;;27.00;45.70;;;;;;4934472;29;20203;-56
2023/01/20 11:05:11;;;;;;;2.47;1.42;;;26.90;45.70;;;;;;4933969;29;20243;-58
2023/01/20 11:07:44;;;;;;;1.80;1.55;;;26.90;45.80;;;;;;4934196;29;20227;-58
2023/01/20 11:10:18;;;;;;;2.13;1.60;;;26.90;45.80;;;;;;4934364;29;20211;-58
2023/01/20 11:12:51;;;;;;;2.72;1.45;;;26.90;45.80;;;;;;4933976;29;20718;-58
2023/01/20 11:15:26;;;;;;;2.50;1.70;;;26.90;45.90;;;;;;4934213;29;20751;-57
2023/01/20 11:18:22;;;;;;;2.60;1.75;;;26.90;45.90;;;;;;4934036;29;20223;-57
2023/01/20 11:20:55;;;;;;;3.13;1.70;;;26.80;45.80;;;;;;4934119;29;20200;-57
2023/01/20 11:23:33;;;;;;;2.78;1.52;;;26.80;45.80;;;;;;4934337;29;20218;-53
2023/01/20 11:26:08;;;;;;;2.83;1.58;;;26.80;45.80;;;;;;4934054;29;20210;-58
2023/01/20 11:28:52;;;;;;;2.15;1.25;;;26.80;45.80;;;;;;4933509;29;20262;-58
2023/01/20 11:31:37;;;;;;;1.20;1.02;;;26.70;45.80;;;;;;4933659;29;20219;-58
2023/01/20 11:34:24;;;;;;;3.97;1.85;;;26.70;45.80;;;;;;4933358;29;20204;-57
2023/01/20 11:37:18;;;;;;;3.22;1.58;;;26.70;45.80;;;;;;4933271;29;20246;-57
2023/01/20 11:40:00;;;;;;;1.83;1.40;;;26.70;45.90;;;;;;4933640;29;20573;-57
2023/01/20 11:42:32;;;;;;;2.30;1.60;;;26.60;45.90;;;;;;4933586;29;20203;-58
2023/01/20 11:45:04;;;;;;;2.13;1.23;;;26.60;46.00;;;;;;4936255;29;20195;-58
2023/01/20 11:47:38;;;;;;;2.67;1.23;;;26.60;46.00;;;;;;4933845;29;20684;-58
2023/01/20 11:50:23;;;;;;;2.15;1.30;;;26.60;46.10;;;;;;4933755;29;20222;-58
2023/01/20 11:52:53;;;;;;;3.42;1.40;;;26.50;46.00;;;;;;4933730;29;20241;-58
2023/01/20 11:55:26;;;;;;;2.75;1.40;;;26.60;46.10;;;;;;4933722;29;20211;-57
2023/01/20 11:57:59;;;;;;;2.08;1.30;;;26.60;46.20;;;;;;4933706;29;20227;-58
2023/01/20 12:00:42;;;;;;;2.67;1.50;;;26.50;46.10;;;;;;4934096;29;20210;-58
2023/01/20 12:03:48;;;;;;;1.67;1.23;;;26.50;46.10;;;;;;4933626;29;20203;-58
2023/01/20 12:06:22;;;;;;;2.60;1.50;;;26.50;46.10;;;;;;4932921;29;20215;-58
2023/01/20 12:08:56;;;;;;;2.00;1.27;;;26.50;46.10;;;;;;4933598;29;20199;-58
2023/01/20 12:11:31;;;;;;;1.83;1.40;;;26.40;46.10;;;;;;4933642;29;20195;-58
2023/01/20 12:14:27;;;;;;;3.20;1.50;;;26.40;46.10;;;;;;4933626;29;20584;-58
2023/01/20 12:17:13;;;;;;;2.47;1.23;;;26.40;46.20;;;;;;4933491;29;20223;-55
2023/01/20 12:20:00;;;;;;;2.38;1.50;;;26.40;46.20;;;;;;4933646;29;20204;-55
2023/01/20 12:22:40;;;;;;;1.75;1.15;;;26.30;46.20;;;;;;4951663;29;20663;-55
2023/01/20 12:25:19;;;;;;;2.35;1.42;;;26.30;46.20;;;;;;4952561;28;20213;-56
2023/01/20 12:27:56;;;;;;;3.08;1.27;;;26.30;46.30;;;;;;4952521;28;20230;-54
2023/01/20 12:30:52;;;;;;;1.88;1.50;;;26.30;46.30;;;;;;4952423;28;20202;-51
2023/01/20 12:33:26;;;;;;;1.95;1.30;;;26.30;46.40;;;;;;4933807;28;20235;-55
2023/01/20 12:36:32;;;;;;;1.92;1.05;;;26.30;46.40;;;;;;4933140;29;20200;-55
2023/01/20 12:39:27;;;;;;;2.55;1.27;;;26.20;46.30;;;;;;4934008;29;20653;-58
2023/01/20 12:42:41;;;;;;;2.45;1.50;;;26.20;46.30;;;;;;4936784;29;20212;-55
2023/01/20 12:45:27;;;;;;;1.90;1.42;;;26.20;46.40;;;;;;4933708;29;20211;-54
2023/01/20 12:48:11;;;;;;;1.35;1.10;;;26.20;46.40;;;;;;4936569;29;20219;-50
2023/01/20 12:50:57;;;;;;;2.83;1.50;;;26.20;46.40;;;;;;4936751;29;20199;-54
2023/01/20 12:53:54;;;;;;;1.45;1.13;;;26.10;46.40;;;;;;4937113;29;20223;-53
2023/01/20 12:56:32;;;;;;;2.13;1.00;;;26.10;46.40;;;;;;4936304;29;20581;-51
2023/01/20 12:59:12;;;;;;;3.55;1.20;;;26.10;46.40;;;;;;4936210;29;20680;-55
2023/01/20 13:01:57;;;;;;;2.08;1.20;;;26.10;46.50;;;;;;4936752;29;20218;-52
2023/01/20 13:04:52;;;;;;;2.53;1.30;;;26.00;46.50;;;;;;4936373;29;20206;-52
2023/01/20 13:07:50;;;;;;;1.92;1.20;;;26.00;46.50;;;;;;4936141;29;20587;-53
2023/01/20 13:10:36;;;;;;;1.90;1.40;;;26.00;46.50;;;;;;4935783;29;20203;-53
2023/01/20 13:13:19;;;;;;;2.38;1.33;;;26.00;46.50;;;;;;4936094;29;20235;-51
2023/01/20 13:15:56;;;;;;;1.45;1.27;;;26.00;46.60;;;;;;4936547;29;20263;-53
2023/01/20 13:18:32;;;;;;;1.40;1.00;;;26.00;46.60;;;;;;4936246;29;20678;-53
2023/01/20 13:21:03;;;;;;;1.85;1.10;;;26.00;46.60;;;;;;4935990;29;20226;-53
2023/01/20 13:23:37;;;;;;;3.10;1.48;;;25.90;46.60;;;;;;4935751;29;20207;-54
2023/01/20 13:26:10;;;;;;;3.22;1.08;;;25.90;46.60;;;;;;4935679;29;20203;-52
2023/01/20 13:28:51;;;;;;;1.67;1.15;;;25.90;46.60;;;;;;4935926;29;20584;-52
2023/01/20 13:31:45;;;;;;;2.10;1.00;;;25.80;46.60;;;;;;4936969;29;20199;-52
2023/01/20 13:34:41;;;;;;;2.20;1.20;;;25.80;46.60;;;;;;4935462;29;20227;-51
2023/01/20 13:37:39;;;;;;;1.25;1.10;;;25.80;46.60;;;;;;4934969;29;20584;-54
2023/01/20 13:40:41;;;;;;;1.92;1.33;;;25.80;46.60;;;;;;4935781;29;20208;-56
2023/01/20 13:43:55;;;;;;;1.42;1.05;;;25.80;46.60;;;;;;4935683;29;20210;-56